sensor_id;sensor_type;location;lat;lon;timestamp;temperature;humidity
66740;DHT22;53653;52.188;8.602;2023-02-12T00:02:09;8.47;88.36
66740;DHT22;53653;52.188;8.602;2023-02-12T00:04:35;8.45;88.52
66740;DHT22;53653;52.188;8.602;2023-02-12T00:07:02;8.43;88.59
66740;DHT22;53653;52.188;8.602;2023-02-12T00:09:28;8.41;88.68
66740;DHT22;53653;52.188;8.602;2023-02-12T00:11:53;8.38;88.82
66740;DHT22;53653;52.188;8.602;2023-02-12T00:14:19;8.37;88.89
66740;DHT22;53653;52.188;8.602;2023-02-12T00:16:45;8.37;89.01
66740;DHT22;53653;52.188;8.602;2023-02-12T00:19:10;8.34;89.00
66740;DHT22;53653;52.188;8.602;2023-02-12T00:21:36;8.32;89.12
66740;DHT22;53653;52.188;8.602;2023-02-12T00:24:02;8.30;89.22
66740;DHT22;53653;52.188;8.602;2023-02-12T00:26:28;8.32;89.27
66740;DHT22;53653;52.188;8.602;2023-02-12T00:28:54;8.26;89.30
66740;DHT22;53653;52.188;8.602;2023-02-12T00:31:27;8.23;89.45
66740;DHT22;53653;52.188;8.602;2023-02-12T00:33:55;8.27;89.43
66740;DHT22;53653;52.188;8.602;2023-02-12T00:36:23;8.24;89.43
66740;DHT22;53653;52.188;8.602;2023-02-12T00:38:53;8.23;89.48
66740;DHT22;53653;52.188;8.602;2023-02-12T00:41:20;8.23;89.51
66740;DHT22;53653;52.188;8.602;2023-02-12T00:43:46;8.19;89.55
66740;DHT22;53653;52.188;8.602;2023-02-12T00:46:13;8.22;89.53
66740;DHT22;53653;52.188;8.602;2023-02-12T00:48:39;8.20;89.68
66740;DHT22;53653;52.188;8.602;2023-02-12T00:51:05;8.22;89.63
66740;DHT22;53653;52.188;8.602;2023-02-12T00:53:31;8.23;89.53
66740;DHT22;53653;52.188;8.602;2023-02-12T00:55:57;8.26;89.47
66740;DHT22;53653;52.188;8.602;2023-02-12T00:58:23;8.24;89.40
66740;DHT22;53653;52.188;8.602;2023-02-12T01:00:49;8.26;89.40
66740;DHT22;53653;52.188;8.602;2023-02-12T01:03:15;8.26;89.39
66740;DHT22;53653;52.188;8.602;2023-02-12T01:05:41;8.24;89.46
66740;DHT22;53653;52.188;8.602;2023-02-12T01:08:07;8.27;89.33
66740;DHT22;53653;52.188;8.602;2023-02-12T01:10:34;8.23;89.52
66740;DHT22;53653;52.188;8.602;2023-02-12T01:13:00;8.22;89.58
66740;DHT22;53653;52.188;8.602;2023-02-12T01:15:26;8.22;89.55
66740;DHT22;53653;52.188;8.602;2023-02-12T01:17:52;8.20;89.56
66740;DHT22;53653;52.188;8.602;2023-02-12T01:20:20;8.20;89.55
66740;DHT22;53653;52.188;8.602;2023-02-12T01:22:46;8.19;89.53
66740;DHT22;53653;52.188;8.602;2023-02-12T01:25:12;8.17;89.63
66740;DHT22;53653;52.188;8.602;2023-02-12T01:27:38;8.14;89.71
66740;DHT22;53653;52.188;8.602;2023-02-12T01:30:05;8.14;89.67
66740;DHT22;53653;52.188;8.602;2023-02-12T01:32:33;8.07;89.83
66740;DHT22;53653;52.188;8.602;2023-02-12T01:34:59;8.12;89.85
66740;DHT22;53653;52.188;8.602;2023-02-12T01:37:24;8.16;89.74
66740;DHT22;53653;52.188;8.602;2023-02-12T01:39:51;8.12;89.79
66740;DHT22;53653;52.188;8.602;2023-02-12T01:42:17;8.14;89.73
66740;DHT22;53653;52.188;8.602;2023-02-12T01:47:43;8.17;89.46
66740;DHT22;53653;52.188;8.602;2023-02-12T01:50:14;8.14;89.37
66740;DHT22;53653;52.188;8.602;2023-02-12T01:52:47;8.22;89.34
66740;DHT22;53653;52.188;8.602;2023-02-12T01:55:14;8.20;89.22
66740;DHT22;53653;52.188;8.602;2023-02-12T01:57:42;8.22;89.24
66740;DHT22;53653;52.188;8.602;2023-02-12T02:00:13;8.22;89.11
66740;DHT22;53653;52.188;8.602;2023-02-12T02:02:42;8.20;89.05
66740;DHT22;53653;52.188;8.602;2023-02-12T02:05:09;8.16;89.13
66740;DHT22;53653;52.188;8.602;2023-02-12T02:07:37;8.14;89.21
66740;DHT22;53653;52.188;8.602;2023-02-12T02:10:03;8.16;89.07
66740;DHT22;53653;52.188;8.602;2023-02-12T02:12:29;8.12;89.19
66740;DHT22;53653;52.188;8.602;2023-02-12T02:15:15;8.17;89.05
66740;DHT22;53653;52.188;8.602;2023-02-12T02:17:50;8.20;88.93
66740;DHT22;53653;52.188;8.602;2023-02-12T02:26:16;8.09;89.17
66740;DHT22;53653;52.188;8.602;2023-02-12T02:31:45;8.10;89.24
66740;DHT22;53653;52.188;8.602;2023-02-12T02:37:02;8.10;89.29
66740;DHT22;53653;52.188;8.602;2023-02-12T02:42:10;8.10;89.46
66740;DHT22;53653;52.188;8.602;2023-02-12T02:47:11;8.07;89.60
66740;DHT22;53653;52.188;8.602;2023-02-12T02:49:43;8.02;89.83
66740;DHT22;53653;52.188;8.602;2023-02-12T02:52:15;8.00;89.84
66740;DHT22;53653;52.188;8.602;2023-02-12T02:54:48;8.03;90.01
66740;DHT22;53653;52.188;8.602;2023-02-12T02:57:29;7.97;90.18
66740;DHT22;53653;52.188;8.602;2023-02-12T03:00:08;7.95;90.32
66740;DHT22;53653;52.188;8.602;2023-02-12T03:02:37;7.96;90.57
66740;DHT22;53653;52.188;8.602;2023-02-12T03:05:30;7.97;90.62
66740;DHT22;53653;52.188;8.602;2023-02-12T03:08:09;7.90;90.93
66740;DHT22;53653;52.188;8.602;2023-02-12T03:10:41;7.89;91.11
66740;DHT22;53653;52.188;8.602;2023-02-12T03:13:23;7.89;91.23
66740;DHT22;53653;52.188;8.602;2023-02-12T03:15:59;7.87;91.48
66740;DHT22;53653;52.188;8.602;2023-02-12T03:18:32;7.86;91.61
66740;DHT22;53653;52.188;8.602;2023-02-12T03:21:01;7.87;91.77
66740;DHT22;53653;52.188;8.602;2023-02-12T03:23:31;7.83;92.01
66740;DHT22;53653;52.188;8.602;2023-02-12T03:26:14;7.75;92.33
66740;DHT22;53653;52.188;8.602;2023-02-12T03:28:43;7.79;92.37
66740;DHT22;53653;52.188;8.602;2023-02-12T03:31:29;7.74;92.53
66740;DHT22;53653;52.188;8.602;2023-02-12T03:39:19;7.64;92.80
66740;DHT22;53653;52.188;8.602;2023-02-12T03:41:55;7.57;93.11
66740;DHT22;53653;52.188;8.602;2023-02-12T03:44:46;7.52;93.46
66740;DHT22;53653;52.188;8.602;2023-02-12T03:49:51;7.65;93.74
66740;DHT22;53653;52.188;8.602;2023-02-12T03:52:17;7.58;93.60
66740;DHT22;53653;52.188;8.602;2023-02-12T03:54:43;7.61;93.76
66740;DHT22;53653;52.188;8.602;2023-02-12T03:57:13;7.62;93.74
66740;DHT22;53653;52.188;8.602;2023-02-12T03:59:44;7.68;93.48
66740;DHT22;53653;52.188;8.602;2023-02-12T04:02:09;7.68;93.46
66740;DHT22;53653;52.188;8.602;2023-02-12T04:04:35;7.72;93.34
66740;DHT22;53653;52.188;8.602;2023-02-12T04:07:01;7.76;93.20
66740;DHT22;53653;52.188;8.602;2023-02-12T04:09:27;7.81;92.81
66740;DHT22;53653;52.188;8.602;2023-02-12T04:12:13;7.78;92.81
66740;DHT22;53653;52.188;8.602;2023-02-12T04:14:52;7.78;92.73
66740;DHT22;53653;52.188;8.602;2023-02-12T04:28:33;7.85;91.88
66740;DHT22;53653;52.188;8.602;2023-02-12T04:31:05;7.78;92.25
66740;DHT22;53653;52.188;8.602;2023-02-12T04:33:34;7.83;92.25
66740;DHT22;53653;52.188;8.602;2023-02-12T04:36:17;7.75;92.26
66740;DHT22;53653;52.188;8.602;2023-02-12T04:38:51;7.69;92.58
66740;DHT22;53653;52.188;8.602;2023-02-12T04:41:17;7.68;92.70
66740;DHT22;53653;52.188;8.602;2023-02-12T04:43:43;7.66;92.60
66740;DHT22;53653;52.188;8.602;2023-02-12T04:46:08;7.68;92.70
66740;DHT22;53653;52.188;8.602;2023-02-12T04:48:48;7.69;92.69
66740;DHT22;53653;52.188;8.602;2023-02-12T04:51:14;7.72;92.62
66740;DHT22;53653;52.188;8.602;2023-02-12T04:53:40;7.71;92.51
66740;DHT22;53653;52.188;8.602;2023-02-12T04:56:09;7.64;92.78
66740;DHT22;53653;52.188;8.602;2023-02-12T04:58:35;7.64;93.02
66740;DHT22;53653;52.188;8.602;2023-02-12T05:01:02;7.66;93.08
66740;DHT22;53653;52.188;8.602;2023-02-12T05:03:28;7.68;93.19
66740;DHT22;53653;52.188;8.602;2023-02-12T05:05:53;7.64;93.14
66740;DHT22;53653;52.188;8.602;2023-02-12T05:08:19;7.62;93.29
66740;DHT22;53653;52.188;8.602;2023-02-12T05:10:44;7.65;93.32
66740;DHT22;53653;52.188;8.602;2023-02-12T05:13:10;7.62;93.41
66740;DHT22;53653;52.188;8.602;2023-02-12T05:15:39;7.57;93.63
66740;DHT22;53653;52.188;8.602;2023-02-12T05:18:05;7.55;93.83
66740;DHT22;53653;52.188;8.602;2023-02-12T05:20:30;7.52;93.91
66740;DHT22;53653;52.188;8.602;2023-02-12T05:22:56;7.47;94.02
66740;DHT22;53653;52.188;8.602;2023-02-12T05:25:21;7.47;94.16
66740;DHT22;53653;52.188;8.602;2023-02-12T05:27:47;7.45;94.30
66740;DHT22;53653;52.188;8.602;2023-02-12T05:30:12;7.48;94.32
66740;DHT22;53653;52.188;8.602;2023-02-12T05:32:38;7.45;94.37
66740;DHT22;53653;52.188;8.602;2023-02-12T05:35:04;7.48;94.29
66740;DHT22;53653;52.188;8.602;2023-02-12T05:37:29;7.51;94.34
66740;DHT22;53653;52.188;8.602;2023-02-12T05:39:56;7.48;94.31
66740;DHT22;53653;52.188;8.602;2023-02-12T05:42:22;7.48;94.30
66740;DHT22;53653;52.188;8.602;2023-02-12T05:44:47;7.44;94.51
66740;DHT22;53653;52.188;8.602;2023-02-12T05:47:13;7.38;94.68
66740;DHT22;53653;52.188;8.602;2023-02-12T05:49:38;7.35;94.81
66740;DHT22;53653;52.188;8.602;2023-02-12T05:52:04;7.32;94.93
66740;DHT22;53653;52.188;8.602;2023-02-12T05:54:30;7.31;95.08
66740;DHT22;53653;52.188;8.602;2023-02-12T05:56:55;7.31;95.12
66740;DHT22;53653;52.188;8.602;2023-02-12T05:59:22;7.31;95.11
66740;DHT22;53653;52.188;8.602;2023-02-12T06:01:49;7.27;95.24
66740;DHT22;53653;52.188;8.602;2023-02-12T06:04:20;7.27;95.26
66740;DHT22;53653;52.188;8.602;2023-02-12T06:06:48;7.31;95.19
66740;DHT22;53653;52.188;8.602;2023-02-12T06:09:14;7.30;95.22
66740;DHT22;53653;52.188;8.602;2023-02-12T06:11:40;7.34;95.12
66740;DHT22;53653;52.188;8.602;2023-02-12T06:14:11;7.31;95.07
66740;DHT22;53653;52.188;8.602;2023-02-12T06:16:37;7.31;95.04
66740;DHT22;53653;52.188;8.602;2023-02-12T06:19:04;7.30;95.19
66740;DHT22;53653;52.188;8.602;2023-02-12T06:21:30;7.31;95.15
66740;DHT22;53653;52.188;8.602;2023-02-12T06:23:56;7.30;95.21
66740;DHT22;53653;52.188;8.602;2023-02-12T06:26:23;7.27;95.26
66740;DHT22;53653;52.188;8.602;2023-02-12T06:28:48;7.23;95.44
66740;DHT22;53653;52.188;8.602;2023-02-12T06:31:40;7.20;95.56
66740;DHT22;53653;52.188;8.602;2023-02-12T06:34:07;7.14;95.69
66740;DHT22;53653;52.188;8.602;2023-02-12T06:36:36;7.20;95.72
66740;DHT22;53653;52.188;8.602;2023-02-12T06:39:02;7.21;95.67
66740;DHT22;53653;52.188;8.602;2023-02-12T06:41:29;7.32;95.46
66740;DHT22;53653;52.188;8.602;2023-02-12T06:43:55;7.32;95.15
66740;DHT22;53653;52.188;8.602;2023-02-12T06:46:20;7.30;95.22
66740;DHT22;53653;52.188;8.602;2023-02-12T06:48:46;7.31;95.15
66740;DHT22;53653;52.188;8.602;2023-02-12T06:51:14;7.38;95.07
66740;DHT22;53653;52.188;8.602;2023-02-12T06:53:40;7.38;94.85
66740;DHT22;53653;52.188;8.602;2023-02-12T06:56:07;7.38;94.86
66740;DHT22;53653;52.188;8.602;2023-02-12T06:58:43;7.44;94.60
66740;DHT22;53653;52.188;8.602;2023-02-12T07:01:20;7.45;94.49
66740;DHT22;53653;52.188;8.602;2023-02-12T07:03:51;7.44;94.52
66740;DHT22;53653;52.188;8.602;2023-02-12T07:06:17;7.41;94.60
66740;DHT22;53653;52.188;8.602;2023-02-12T07:08:43;7.37;94.67
66740;DHT22;53653;52.188;8.602;2023-02-12T07:11:09;7.37;94.75
66740;DHT22;53653;52.188;8.602;2023-02-12T07:13:34;7.40;94.71
66740;DHT22;53653;52.188;8.602;2023-02-12T07:16:07;7.35;94.76
66740;DHT22;53653;52.188;8.602;2023-02-12T07:18:34;7.37;94.74
66740;DHT22;53653;52.188;8.602;2023-02-12T07:21:01;7.34;94.85
66740;DHT22;53653;52.188;8.602;2023-02-12T07:23:26;7.31;95.02
66740;DHT22;53653;52.188;8.602;2023-02-12T07:26:00;7.34;94.95
66740;DHT22;53653;52.188;8.602;2023-02-12T07:28:26;7.34;95.04
66740;DHT22;53653;52.188;8.602;2023-02-12T07:30:52;7.35;94.88
66740;DHT22;53653;52.188;8.602;2023-02-12T07:33:18;7.35;94.97
66740;DHT22;53653;52.188;8.602;2023-02-12T07:35:44;7.35;94.89
66740;DHT22;53653;52.188;8.602;2023-02-12T07:38:10;7.34;94.92
66740;DHT22;53653;52.188;8.602;2023-02-12T07:40:36;7.45;94.83
66740;DHT22;53653;52.188;8.602;2023-02-12T07:43:01;7.41;94.75
66740;DHT22;53653;52.188;8.602;2023-02-12T07:45:27;7.40;94.86
66740;DHT22;53653;52.188;8.602;2023-02-12T07:47:52;7.38;94.92
66740;DHT22;53653;52.188;8.602;2023-02-12T07:50:18;7.35;95.04
66740;DHT22;53653;52.188;8.602;2023-02-12T07:52:43;7.30;95.27
66740;DHT22;53653;52.188;8.602;2023-02-12T07:55:09;7.30;95.21
66740;DHT22;53653;52.188;8.602;2023-02-12T07:57:35;7.31;95.37
66740;DHT22;53653;52.188;8.602;2023-02-12T08:00:00;7.37;95.41
66740;DHT22;53653;52.188;8.602;2023-02-12T08:02:26;7.43;95.17
66740;DHT22;53653;52.188;8.602;2023-02-12T08:04:57;7.32;95.19
66740;DHT22;53653;52.188;8.602;2023-02-12T08:07:23;7.28;95.41
66740;DHT22;53653;52.188;8.602;2023-02-12T08:09:49;7.31;95.48
66740;DHT22;53653;52.188;8.602;2023-02-12T08:12:16;7.28;95.58
66740;DHT22;53653;52.188;8.602;2023-02-12T08:14:41;7.30;95.55
66740;DHT22;53653;52.188;8.602;2023-02-12T08:17:07;7.34;95.57
66740;DHT22;53653;52.188;8.602;2023-02-12T08:19:33;7.30;95.64
66740;DHT22;53653;52.188;8.602;2023-02-12T08:21:58;7.27;95.86
66740;DHT22;53653;52.188;8.602;2023-02-12T08:24:26;7.23;95.89
66740;DHT22;53653;52.188;8.602;2023-02-12T08:26:52;7.34;95.78
66740;DHT22;53653;52.188;8.602;2023-02-12T08:29:20;7.32;95.76
66740;DHT22;53653;52.188;8.602;2023-02-12T08:31:48;7.38;95.85
66740;DHT22;53653;52.188;8.602;2023-02-12T08:34:22;7.38;95.74
66740;DHT22;53653;52.188;8.602;2023-02-12T08:36:49;7.40;95.67
66740;DHT22;53653;52.188;8.602;2023-02-12T08:39:16;7.43;95.73
66740;DHT22;53653;52.188;8.602;2023-02-12T08:41:42;7.48;95.65
66740;DHT22;53653;52.188;8.602;2023-02-12T08:44:08;7.51;95.55
66740;DHT22;53653;52.188;8.602;2023-02-12T08:46:37;7.57;95.49
66740;DHT22;53653;52.188;8.602;2023-02-12T08:49:09;7.57;95.55
66740;DHT22;53653;52.188;8.602;2023-02-12T08:51:38;7.58;95.30
66740;DHT22;53653;52.188;8.602;2023-02-12T08:54:06;7.55;95.41
66740;DHT22;53653;52.188;8.602;2023-02-12T08:56:33;7.59;95.32
66740;DHT22;53653;52.188;8.602;2023-02-12T08:59:00;7.59;95.46
66740;DHT22;53653;52.188;8.602;2023-02-12T09:01:29;7.68;95.37
66740;DHT22;53653;52.188;8.602;2023-02-12T09:03:54;7.68;95.08
66740;DHT22;53653;52.188;8.602;2023-02-12T09:06:22;7.69;95.20
66740;DHT22;53653;52.188;8.602;2023-02-12T09:08:48;7.65;95.21
66740;DHT22;53653;52.188;8.602;2023-02-12T09:11:17;7.74;95.04
66740;DHT22;53653;52.188;8.602;2023-02-12T09:13:44;7.85;94.59
66740;DHT22;53653;52.188;8.602;2023-02-12T09:16:11;7.87;94.63
66740;DHT22;53653;52.188;8.602;2023-02-12T09:18:37;7.86;94.57
66740;DHT22;53653;52.188;8.602;2023-02-12T09:21:08;7.85;94.63
66740;DHT22;53653;52.188;8.602;2023-02-12T09:23:34;7.89;94.53
66740;DHT22;53653;52.188;8.602;2023-02-12T09:26:03;7.85;94.58
66740;DHT22;53653;52.188;8.602;2023-02-12T09:28:32;7.87;94.72
66740;DHT22;53653;52.188;8.602;2023-02-12T09:30:58;7.89;94.59
66740;DHT22;53653;52.188;8.602;2023-02-12T09:33:23;7.89;94.70
66740;DHT22;53653;52.188;8.602;2023-02-12T09:35:49;7.96;94.59
66740;DHT22;53653;52.188;8.602;2023-02-12T09:38:15;8.02;94.40
66740;DHT22;53653;52.188;8.602;2023-02-12T09:43:52;8.05;93.77
66740;DHT22;53653;52.188;8.602;2023-02-12T09:46:32;8.02;94.10
66740;DHT22;53653;52.188;8.602;2023-02-12T09:49:07;7.97;94.11
66740;DHT22;53653;52.188;8.602;2023-02-12T09:51:35;7.92;94.28
66740;DHT22;53653;52.188;8.602;2023-02-12T09:54:10;7.86;94.75
66740;DHT22;53653;52.188;8.602;2023-02-12T09:56:39;7.90;94.96
66740;DHT22;53653;52.188;8.602;2023-02-12T09:59:07;8.05;94.37
66740;DHT22;53653;52.188;8.602;2023-02-12T10:01:34;8.07;94.23
66740;DHT22;53653;52.188;8.602;2023-02-12T10:04:00;8.14;94.41
66740;DHT22;53653;52.188;8.602;2023-02-12T10:06:40;8.12;94.16
66740;DHT22;53653;52.188;8.602;2023-02-12T10:09:31;8.07;94.22
66740;DHT22;53653;52.188;8.602;2023-02-12T10:12:15;8.09;93.96
66740;DHT22;53653;52.188;8.602;2023-02-12T10:17:36;8.23;93.75
66740;DHT22;53653;52.188;8.602;2023-02-12T10:25:58;8.40;93.55
66740;DHT22;53653;52.188;8.602;2023-02-12T10:28:31;8.44;93.34
66740;DHT22;53653;52.188;8.602;2023-02-12T10:31:01;8.41;93.26
66740;DHT22;53653;52.188;8.602;2023-02-12T10:36:10;8.43;93.40
66740;DHT22;53653;52.188;8.602;2023-02-12T10:38:41;8.38;93.28
66740;DHT22;53653;52.188;8.602;2023-02-12T10:41:10;8.37;93.46
66740;DHT22;53653;52.188;8.602;2023-02-12T10:43:37;8.38;93.38
66740;DHT22;53653;52.188;8.602;2023-02-12T10:46:03;8.40;93.65
66740;DHT22;53653;52.188;8.602;2023-02-12T10:48:36;8.44;93.31
66740;DHT22;53653;52.188;8.602;2023-02-12T10:53:44;8.45;93.30
66740;DHT22;53653;52.188;8.602;2023-02-12T10:58:41;8.41;93.31
66740;DHT22;53653;52.188;8.602;2023-02-12T11:01:38;8.34;93.39
66740;DHT22;53653;52.188;8.602;2023-02-12T11:04:26;8.26;93.44
66740;DHT22;53653;52.188;8.602;2023-02-12T11:06:58;8.33;93.65
66740;DHT22;53653;52.188;8.602;2023-02-12T11:09:51;8.38;93.45
66740;DHT22;53653;52.188;8.602;2023-02-12T11:12:35;8.40;93.42
66740;DHT22;53653;52.188;8.602;2023-02-12T11:15:23;8.41;93.35
66740;DHT22;53653;52.188;8.602;2023-02-12T11:17:58;8.44;93.58
66740;DHT22;53653;52.188;8.602;2023-02-12T11:20:32;8.44;93.20
66740;DHT22;53653;52.188;8.602;2023-02-12T11:23:01;8.41;93.42
66740;DHT22;53653;52.188;8.602;2023-02-12T11:25:33;8.41;93.15
66740;DHT22;53653;52.188;8.602;2023-02-12T11:28:04;8.38;93.23
66740;DHT22;53653;52.188;8.602;2023-02-12T11:30:31;8.40;93.23
66740;DHT22;53653;52.188;8.602;2023-02-12T11:33:35;8.36;93.53
66740;DHT22;53653;52.188;8.602;2023-02-12T11:36:10;8.38;93.56
66740;DHT22;53653;52.188;8.602;2023-02-12T11:38:39;8.43;93.66
66740;DHT22;53653;52.188;8.602;2023-02-12T11:41:23;8.44;93.87
66740;DHT22;53653;52.188;8.602;2023-02-12T11:43:50;8.54;93.67
66740;DHT22;53653;52.188;8.602;2023-02-12T11:46:22;8.55;93.48
66740;DHT22;53653;52.188;8.602;2023-02-12T11:48:51;8.57;93.58
66740;DHT22;53653;52.188;8.602;2023-02-12T11:51:24;8.58;93.19
66740;DHT22;53653;52.188;8.602;2023-02-12T11:53:52;8.67;93.23
66740;DHT22;53653;52.188;8.602;2023-02-12T11:56:18;8.74;93.18
66740;DHT22;53653;52.188;8.602;2023-02-12T11:58:46;8.76;93.00
66740;DHT22;53653;52.188;8.602;2023-02-12T12:01:28;8.78;93.15
66740;DHT22;53653;52.188;8.602;2023-02-12T12:03:58;8.82;92.58
66740;DHT22;53653;52.188;8.602;2023-02-12T12:06:34;8.84;92.17
66740;DHT22;53653;52.188;8.602;2023-02-12T12:09:22;8.84;92.25
66740;DHT22;53653;52.188;8.602;2023-02-12T12:14:51;8.89;92.32
66740;DHT22;53653;52.188;8.602;2023-02-12T12:17:55;8.91;92.13
66740;DHT22;53653;52.188;8.602;2023-02-12T12:20:50;8.93;91.92
66740;DHT22;53653;52.188;8.602;2023-02-12T12:23:34;8.98;91.77
66740;DHT22;53653;52.188;8.602;2023-02-12T12:26:30;8.98;91.46
66740;DHT22;53653;52.188;8.602;2023-02-12T12:28:58;8.99;91.27
66740;DHT22;53653;52.188;8.602;2023-02-12T12:31:38;8.93;91.16
66740;DHT22;53653;52.188;8.602;2023-02-12T12:41:50;8.93;91.64
66740;DHT22;53653;52.188;8.602;2023-02-12T12:50:24;8.99;91.51
66740;DHT22;53653;52.188;8.602;2023-02-12T12:58:58;9.01;90.59
66740;DHT22;53653;52.188;8.602;2023-02-12T13:10:47;9.12;90.53
66740;DHT22;53653;52.188;8.602;2023-02-12T13:15:33;9.11;90.02
66740;DHT22;53653;52.188;8.602;2023-02-12T13:20:46;9.06;89.90
66740;DHT22;53653;52.188;8.602;2023-02-12T13:28:35;8.98;90.57
66740;DHT22;53653;52.188;8.602;2023-02-12T13:31:07;9.05;89.96
66740;DHT22;53653;52.188;8.602;2023-02-12T13:33:58;9.06;89.63
66740;DHT22;53653;52.188;8.602;2023-02-12T13:36:22;9.01;89.81
66740;DHT22;53653;52.188;8.602;2023-02-12T13:38:57;8.99;89.96
66740;DHT22;53653;52.188;8.602;2023-02-12T13:41:24;9.05;89.64
66740;DHT22;53653;52.188;8.602;2023-02-12T13:51:46;9.09;90.04
66740;DHT22;53653;52.188;8.602;2023-02-12T13:57:14;9.19;89.49
66740;DHT22;53653;52.188;8.602;2023-02-12T13:59:42;9.19;89.41
66740;DHT22;53653;52.188;8.602;2023-02-12T14:04:56;9.39;87.44
66740;DHT22;53653;52.188;8.602;2023-02-12T14:07:46;9.36;87.12
66740;DHT22;53653;52.188;8.602;2023-02-12T14:10:28;9.29;87.38
66740;DHT22;53653;52.188;8.602;2023-02-12T14:12:58;9.30;87.79
66740;DHT22;53653;52.188;8.602;2023-02-12T14:15:42;9.39;86.28
66740;DHT22;53653;52.188;8.602;2023-02-12T14:18:30;9.34;85.90
66740;DHT22;53653;52.188;8.602;2023-02-12T14:23:34;9.27;86.36
66740;DHT22;53653;52.188;8.602;2023-02-12T14:26:10;9.27;86.53
66740;DHT22;53653;52.188;8.602;2023-02-12T14:33:44;9.27;87.08
66740;DHT22;53653;52.188;8.602;2023-02-12T14:36:40;9.27;86.90
66740;DHT22;53653;52.188;8.602;2023-02-12T14:46:58;9.24;86.71
66740;DHT22;53653;52.188;8.602;2023-02-12T14:49:26;9.23;86.95
66740;DHT22;53653;52.188;8.602;2023-02-12T14:51:56;9.23;87.31
66740;DHT22;53653;52.188;8.602;2023-02-12T14:54:36;9.22;87.39
66740;DHT22;53653;52.188;8.602;2023-02-12T15:02:29;9.19;86.58
66740;DHT22;53653;52.188;8.602;2023-02-12T15:23:40;9.22;86.92
66740;DHT22;53653;52.188;8.602;2023-02-12T15:26:15;9.20;86.79
66740;DHT22;53653;52.188;8.602;2023-02-12T15:28:45;9.29;86.15
66740;DHT22;53653;52.188;8.602;2023-02-12T15:31:35;9.29;85.71
66740;DHT22;53653;52.188;8.602;2023-02-12T15:34:02;9.20;86.20
66740;DHT22;53653;52.188;8.602;2023-02-12T15:40:15;9.13;86.73
66740;DHT22;53653;52.188;8.602;2023-02-12T15:43:15;9.12;86.82
66740;DHT22;53653;52.188;8.602;2023-02-12T15:45:49;9.09;87.13
66740;DHT22;53653;52.188;8.602;2023-02-12T15:48:21;9.01;87.22
66740;DHT22;53653;52.188;8.602;2023-02-12T15:53:39;9.03;87.81
66740;DHT22;53653;52.188;8.602;2023-02-12T15:56:26;9.02;87.45
66740;DHT22;53653;52.188;8.602;2023-02-12T15:58:54;9.06;87.30
66740;DHT22;53653;52.188;8.602;2023-02-12T16:01:31;9.02;87.24
66740;DHT22;53653;52.188;8.602;2023-02-12T16:04:02;8.96;87.25
66740;DHT22;53653;52.188;8.602;2023-02-12T16:06:31;8.95;87.42
66740;DHT22;53653;52.188;8.602;2023-02-12T16:09:02;8.92;87.46
66740;DHT22;53653;52.188;8.602;2023-02-12T16:11:29;8.93;87.57
66740;DHT22;53653;52.188;8.602;2023-02-12T16:14:01;8.82;88.38
66740;DHT22;53653;52.188;8.602;2023-02-12T16:16:37;8.75;89.17
66740;DHT22;53653;52.188;8.602;2023-02-12T16:19:16;8.68;88.94
66740;DHT22;53653;52.188;8.602;2023-02-12T16:21:42;8.72;89.12
66740;DHT22;53653;52.188;8.602;2023-02-12T16:24:24;8.68;88.90
66740;DHT22;53653;52.188;8.602;2023-02-12T16:26:50;8.65;88.80
66740;DHT22;53653;52.188;8.602;2023-02-12T16:29:17;8.61;88.76
66740;DHT22;53653;52.188;8.602;2023-02-12T16:32:01;8.55;89.67
66740;DHT22;53653;52.188;8.602;2023-02-12T16:34:33;8.50;90.00
66740;DHT22;53653;52.188;8.602;2023-02-12T16:36:59;8.44;90.20
66740;DHT22;53653;52.188;8.602;2023-02-12T16:42:18;8.37;90.78
66740;DHT22;53653;52.188;8.602;2023-02-12T16:44:49;8.34;90.79
66740;DHT22;53653;52.188;8.602;2023-02-12T16:47:19;8.34;90.74
66740;DHT22;53653;52.188;8.602;2023-02-12T16:49:57;8.32;90.40
66740;DHT22;53653;52.188;8.602;2023-02-12T16:52:41;8.40;90.19
66740;DHT22;53653;52.188;8.602;2023-02-12T16:55:17;8.40;90.02
66740;DHT22;53653;52.188;8.602;2023-02-12T16:57:43;8.45;90.12
66740;DHT22;53653;52.188;8.602;2023-02-12T17:00:11;8.44;90.11
66740;DHT22;53653;52.188;8.602;2023-02-12T17:02:39;8.41;90.09
66740;DHT22;53653;52.188;8.602;2023-02-12T17:05:05;8.36;90.12
66740;DHT22;53653;52.188;8.602;2023-02-12T17:07:32;8.37;90.32
66740;DHT22;53653;52.188;8.602;2023-02-12T17:09:58;8.33;90.17
66740;DHT22;53653;52.188;8.602;2023-02-12T17:12:24;8.34;90.57
66740;DHT22;53653;52.188;8.602;2023-02-12T17:14:50;8.32;90.71
66740;DHT22;53653;52.188;8.602;2023-02-12T17:17:15;8.27;90.40
66740;DHT22;53653;52.188;8.602;2023-02-12T17:19:41;8.29;90.29
66740;DHT22;53653;52.188;8.602;2023-02-12T17:22:13;8.27;90.36
66740;DHT22;53653;52.188;8.602;2023-02-12T17:24:40;8.30;90.66
66740;DHT22;53653;52.188;8.602;2023-02-12T17:27:05;8.29;90.85
66740;DHT22;53653;52.188;8.602;2023-02-12T17:29:32;8.20;91.20
66740;DHT22;53653;52.188;8.602;2023-02-12T17:31:58;8.17;91.21
66740;DHT22;53653;52.188;8.602;2023-02-12T17:34:24;8.24;91.17
66740;DHT22;53653;52.188;8.602;2023-02-12T17:36:49;8.20;91.20
66740;DHT22;53653;52.188;8.602;2023-02-12T17:39:15;8.19;91.44
66740;DHT22;53653;52.188;8.602;2023-02-12T17:41:41;8.12;91.46
66740;DHT22;53653;52.188;8.602;2023-02-12T17:44:08;8.06;91.63
66740;DHT22;53653;52.188;8.602;2023-02-12T17:46:34;8.00;91.88
66740;DHT22;53653;52.188;8.602;2023-02-12T17:48:59;8.00;91.99
66740;DHT22;53653;52.188;8.602;2023-02-12T17:51:25;8.02;92.04
66740;DHT22;53653;52.188;8.602;2023-02-12T17:53:50;8.06;91.99
66740;DHT22;53653;52.188;8.602;2023-02-12T17:56:20;8.12;91.87
66740;DHT22;53653;52.188;8.602;2023-02-12T18:13:29;8.02;92.05
66740;DHT22;53653;52.188;8.602;2023-02-12T18:15:55;7.96;92.38
66740;DHT22;53653;52.188;8.602;2023-02-12T18:18:20;7.90;92.43
66740;DHT22;53653;52.188;8.602;2023-02-12T18:20:46;7.89;92.44
66740;DHT22;53653;52.188;8.602;2023-02-12T18:23:11;7.87;92.49
66740;DHT22;53653;52.188;8.602;2023-02-12T18:25:41;7.92;92.51
66740;DHT22;53653;52.188;8.602;2023-02-12T18:28:08;7.87;92.61
66740;DHT22;53653;52.188;8.602;2023-02-12T18:30:34;7.86;92.51
66740;DHT22;53653;52.188;8.602;2023-02-12T18:33:01;7.83;92.62
66740;DHT22;53653;52.188;8.602;2023-02-12T18:35:26;7.86;92.61
66740;DHT22;53653;52.188;8.602;2023-02-12T18:37:52;7.89;92.56
66740;DHT22;53653;52.188;8.602;2023-02-12T18:40:17;7.96;92.15
66740;DHT22;53653;52.188;8.602;2023-02-12T18:42:43;7.95;91.94
66740;DHT22;53653;52.188;8.602;2023-02-12T18:45:11;7.97;91.97
66740;DHT22;53653;52.188;8.602;2023-02-12T18:47:37;7.97;92.16
66740;DHT22;53653;52.188;8.602;2023-02-12T18:50:03;7.96;92.44
66740;DHT22;53653;52.188;8.602;2023-02-12T18:52:28;8.02;92.26
66740;DHT22;53653;52.188;8.602;2023-02-12T19:06:30;7.87;92.68
66740;DHT22;53653;52.188;8.602;2023-02-12T19:08:57;7.90;92.50
66740;DHT22;53653;52.188;8.602;2023-02-12T19:11:24;7.86;92.56
66740;DHT22;53653;52.188;8.602;2023-02-12T19:13:50;7.81;92.90